sensor_id;sensor_type;location;lat;lon;timestamp;P1;durP1;ratioP1;P2;durP2;ratioP2
52023;SDS011;38038;45.922;13.604;2024-02-21T00:02:19;10.97;;;10.17;;
52023;SDS011;38038;45.922;13.604;2024-02-21T00:04:44;10.63;;;9.90;;
52023;SDS011;38038;45.922;13.604;2024-02-21T00:07:10;10.17;;;9.57;;
52023;SDS011;38038;45.922;13.604;2024-02-21T00:09:36;12.80;;;11.90;;
52023;SDS011;38038;45.922;13.604;2024-02-21T00:12:02;12.67;;;11.87;;
52023;SDS011;38038;45.922;13.604;2024-02-21T00:14:28;11.20;;;10.40;;
52023;SDS011;38038;45.922;13.604;2024-02-21T00:16:53;11.40;;;10.60;;
52023;SDS011;38038;45.922;13.604;2024-02-21T00:19:19;12.33;;;11.27;;
52023;SDS011;38038;45.922;13.604;2024-02-21T00:21:45;11.57;;;10.70;;
52023;SDS011;38038;45.922;13.604;2024-02-21T00:24:11;11.53;;;10.73;;
52023;SDS011;38038;45.922;13.604;2024-02-21T00:26:37;12.17;;;11.23;;
52023;SDS011;38038;45.922;13.604;2024-02-21T00:29:03;11.40;;;10.60;;
52023;SDS011;38038;45.922;13.604;2024-02-21T00:31:29;11.40;;;10.60;;
52023;SDS011;38038;45.922;13.604;2024-02-21T00:33:54;12.07;;;11.17;;
52023;SDS011;38038;45.922;13.604;2024-02-21T00:36:20;12.43;;;11.53;;
52023;SDS011;38038;45.922;13.604;2024-02-21T00:38:46;11.27;;;10.57;;
52023;SDS011;38038;45.922;13.604;2024-02-21T00:41:11;11.03;;;10.20;;
52023;SDS011;38038;45.922;13.604;2024-02-21T00:43:37;11.50;;;10.60;;
52023;SDS011;38038;45.922;13.604;2024-02-21T00:46:05;10.63;;;9.93;;
52023;SDS011;38038;45.922;13.604;2024-02-21T00:48:31;12.27;;;11.43;;
52023;SDS011;38038;45.922;13.604;2024-02-21T00:50:56;11.43;;;10.73;;
52023;SDS011;38038;45.922;13.604;2024-02-21T00:53:23;11.37;;;10.67;;
52023;SDS011;38038;45.922;13.604;2024-02-21T00:55:49;12.27;;;11.37;;
52023;SDS011;38038;45.922;13.604;2024-02-21T00:58:14;10.00;;;9.37;;
52023;SDS011;38038;45.922;13.604;2024-02-21T01:00:40;11.57;;;10.63;;
52023;SDS011;38038;45.922;13.604;2024-02-21T01:03:06;10.30;;;9.47;;
52023;SDS011;38038;45.922;13.604;2024-02-21T01:05:32;11.07;;;10.37;;
52023;SDS011;38038;45.922;13.604;2024-02-21T01:07:57;14.20;;;13.10;;
52023;SDS011;38038;45.922;13.604;2024-02-21T01:10:23;11.50;;;10.57;;
52023;SDS011;38038;45.922;13.604;2024-02-21T01:12:49;15.57;;;14.27;;
52023;SDS011;38038;45.922;13.604;2024-02-21T01:15:14;11.47;;;10.77;;
52023;SDS011;38038;45.922;13.604;2024-02-21T01:17:40;14.17;;;12.97;;
52023;SDS011;38038;45.922;13.604;2024-02-21T01:20:06;13.43;;;12.53;;
52023;SDS011;38038;45.922;13.604;2024-02-21T01:22:32;12.53;;;11.67;;
52023;SDS011;38038;45.922;13.604;2024-02-21T01:24:58;9.97;;;9.30;;
52023;SDS011;38038;45.922;13.604;2024-02-21T01:27:24;12.13;;;11.10;;
52023;SDS011;38038;45.922;13.604;2024-02-21T01:29:49;11.03;;;10.23;;
52023;SDS011;38038;45.922;13.604;2024-02-21T01:32:15;10.47;;;9.70;;
52023;SDS011;38038;45.922;13.604;2024-02-21T01:34:41;11.60;;;10.80;;
52023;SDS011;38038;45.922;13.604;2024-02-21T01:37:07;11.57;;;10.77;;
52023;SDS011;38038;45.922;13.604;2024-02-21T01:39:33;11.50;;;10.70;;
52023;SDS011;38038;45.922;13.604;2024-02-21T01:41:59;12.87;;;12.07;;
52023;SDS011;38038;45.922;13.604;2024-02-21T01:44:25;13.53;;;12.73;;
52023;SDS011;38038;45.922;13.604;2024-02-21T01:46:51;10.90;;;10.20;;
52023;SDS011;38038;45.922;13.604;2024-02-21T01:49:18;13.53;;;12.73;;
52023;SDS011;38038;45.922;13.604;2024-02-21T01:51:44;10.70;;;9.90;;
52023;SDS011;38038;45.922;13.604;2024-02-21T01:54:11;13.50;;;12.60;;
52023;SDS011;38038;45.922;13.604;2024-02-21T01:56:41;11.70;;;11.00;;
52023;SDS011;38038;45.922;13.604;2024-02-21T01:59:08;11.40;;;10.67;;
52023;SDS011;38038;45.922;13.604;2024-02-21T02:01:34;10.87;;;9.97;;
52023;SDS011;38038;45.922;13.604;2024-02-21T02:03:59;10.83;;;10.23;;
52023;SDS011;38038;45.922;13.604;2024-02-21T02:06:25;9.30;;;8.70;;
52023;SDS011;38038;45.922;13.604;2024-02-21T02:08:52;9.77;;;9.17;;
52023;SDS011;38038;45.922;13.604;2024-02-21T02:11:19;9.60;;;9.00;;
52023;SDS011;38038;45.922;13.604;2024-02-21T02:13:45;9.70;;;9.10;;
52023;SDS011;38038;45.922;13.604;2024-02-21T02:16:11;12.30;;;11.60;;
52023;SDS011;38038;45.922;13.604;2024-02-21T02:18:36;10.60;;;9.50;;
52023;SDS011;38038;45.922;13.604;2024-02-21T02:21:03;9.03;;;8.50;;
52023;SDS011;38038;45.922;13.604;2024-02-21T02:23:34;9.20;;;8.67;;
52023;SDS011;38038;45.922;13.604;2024-02-21T02:26:00;9.83;;;9.23;;
52023;SDS011;38038;45.922;13.604;2024-02-21T02:28:28;9.07;;;8.57;;
52023;SDS011;38038;45.922;13.604;2024-02-21T02:30:54;8.47;;;7.97;;
52023;SDS011;38038;45.922;13.604;2024-02-21T02:33:20;10.00;;;9.40;;
52023;SDS011;38038;45.922;13.604;2024-02-21T02:35:46;10.77;;;10.17;;
52023;SDS011;38038;45.922;13.604;2024-02-21T02:38:11;12.50;;;11.80;;
52023;SDS011;38038;45.922;13.604;2024-02-21T02:40:38;12.77;;;12.07;;
52023;SDS011;38038;45.922;13.604;2024-02-21T02:43:07;13.57;;;12.87;;
52023;SDS011;38038;45.922;13.604;2024-02-21T02:45:34;11.20;;;10.50;;
52023;SDS011;38038;45.922;13.604;2024-02-21T02:47:59;13.50;;;12.70;;
52023;SDS011;38038;45.922;13.604;2024-02-21T02:50:26;13.57;;;12.67;;
52023;SDS011;38038;45.922;13.604;2024-02-21T02:52:52;13.90;;;13.03;;
52023;SDS011;38038;45.922;13.604;2024-02-21T02:55:19;10.07;;;9.37;;
52023;SDS011;38038;45.922;13.604;2024-02-21T02:57:45;8.93;;;8.27;;
52023;SDS011;38038;45.922;13.604;2024-02-21T03:00:11;9.47;;;8.77;;
52023;SDS011;38038;45.922;13.604;2024-02-21T03:02:38;10.33;;;9.53;;
52023;SDS011;38038;45.922;13.604;2024-02-21T03:05:11;10.27;;;9.67;;
52023;SDS011;38038;45.922;13.604;2024-02-21T03:07:41;10.93;;;10.23;;
52023;SDS011;38038;45.922;13.604;2024-02-21T03:10:07;10.03;;;9.37;;
52023;SDS011;38038;45.922;13.604;2024-02-21T03:12:34;9.27;;;8.77;;
52023;SDS011;38038;45.922;13.604;2024-02-21T03:14:59;10.03;;;9.43;;
52023;SDS011;38038;45.922;13.604;2024-02-21T03:17:25;10.50;;;9.90;;
52023;SDS011;38038;45.922;13.604;2024-02-21T03:19:54;8.40;;;7.90;;
52023;SDS011;38038;45.922;13.604;2024-02-21T03:22:22;9.97;;;9.37;;
52023;SDS011;38038;45.922;13.604;2024-02-21T03:24:48;10.97;;;10.37;;
52023;SDS011;38038;45.922;13.604;2024-02-21T03:27:14;12.23;;;11.53;;
52023;SDS011;38038;45.922;13.604;2024-02-21T03:29:39;14.73;;;13.83;;
52023;SDS011;38038;45.922;13.604;2024-02-21T03:32:05;14.50;;;13.70;;
52023;SDS011;38038;45.922;13.604;2024-02-21T03:34:31;14.40;;;13.50;;
52023;SDS011;38038;45.922;13.604;2024-02-21T03:36:57;13.37;;;12.67;;
52023;SDS011;38038;45.922;13.604;2024-02-21T03:39:24;13.50;;;12.77;;
52023;SDS011;38038;45.922;13.604;2024-02-21T03:41:49;14.33;;;13.50;;
52023;SDS011;38038;45.922;13.604;2024-02-21T03:44:16;14.03;;;13.33;;
52023;SDS011;38038;45.922;13.604;2024-02-21T03:46:42;12.93;;;12.23;;
52023;SDS011;38038;45.922;13.604;2024-02-21T03:49:07;11.27;;;10.67;;
52023;SDS011;38038;45.922;13.604;2024-02-21T03:51:33;8.83;;;8.20;;
52023;SDS011;38038;45.922;13.604;2024-02-21T03:53:59;10.40;;;9.80;;
52023;SDS011;38038;45.922;13.604;2024-02-21T03:56:24;10.33;;;9.63;;
52023;SDS011;38038;45.922;13.604;2024-02-21T03:58:50;8.87;;;8.37;;
52023;SDS011;38038;45.922;13.604;2024-02-21T04:01:16;11.23;;;10.63;;
52023;SDS011;38038;45.922;13.604;2024-02-21T04:03:42;12.47;;;11.50;;
52023;SDS011;38038;45.922;13.604;2024-02-21T04:06:09;11.77;;;10.87;;
52023;SDS011;38038;45.922;13.604;2024-02-21T04:08:35;9.70;;;9.20;;
52023;SDS011;38038;45.922;13.604;2024-02-21T04:11:01;9.47;;;8.87;;
52023;SDS011;38038;45.922;13.604;2024-02-21T04:13:26;9.70;;;9.10;;
52023;SDS011;38038;45.922;13.604;2024-02-21T04:15:52;10.63;;;9.83;;
52023;SDS011;38038;45.922;13.604;2024-02-21T04:18:18;12.20;;;11.50;;
52023;SDS011;38038;45.922;13.604;2024-02-21T04:20:44;10.57;;;9.97;;
52023;SDS011;38038;45.922;13.604;2024-02-21T04:23:09;13.17;;;12.47;;
52023;SDS011;38038;45.922;13.604;2024-02-21T04:25:35;11.70;;;11.10;;
52023;SDS011;38038;45.922;13.604;2024-02-21T04:28:01;9.07;;;8.40;;
52023;SDS011;38038;45.922;13.604;2024-02-21T04:30:27;8.40;;;7.90;;
52023;SDS011;38038;45.922;13.604;2024-02-21T04:32:53;11.13;;;10.53;;
52023;SDS011;38038;45.922;13.604;2024-02-21T04:35:19;10.33;;;9.83;;
52023;SDS011;38038;45.922;13.604;2024-02-21T04:37:45;8.13;;;7.73;;
52023;SDS011;38038;45.922;13.604;2024-02-21T04:40:11;8.63;;;8.20;;
52023;SDS011;38038;45.922;13.604;2024-02-21T04:42:36;11.80;;;11.20;;
52023;SDS011;38038;45.922;13.604;2024-02-21T04:45:02;12.60;;;11.83;;
52023;SDS011;38038;45.922;13.604;2024-02-21T04:47:28;10.03;;;9.53;;
52023;SDS011;38038;45.922;13.604;2024-02-21T04:49:54;8.70;;;8.20;;
52023;SDS011;38038;45.922;13.604;2024-02-21T04:52:20;8.27;;;7.77;;
52023;SDS011;38038;45.922;13.604;2024-02-21T04:54:46;8.77;;;8.17;;
52023;SDS011;38038;45.922;13.604;2024-02-21T04:57:12;7.80;;;7.40;;
52023;SDS011;38038;45.922;13.604;2024-02-21T04:59:42;8.33;;;7.93;;
52023;SDS011;38038;45.922;13.604;2024-02-21T05:02:12;8.90;;;8.13;;
52023;SDS011;38038;45.922;13.604;2024-02-21T05:04:38;13.93;;;8.63;;
52023;SDS011;38038;45.922;13.604;2024-02-21T05:07:06;8.27;;;7.87;;
52023;SDS011;38038;45.922;13.604;2024-02-21T05:09:32;7.83;;;7.33;;
52023;SDS011;38038;45.922;13.604;2024-02-21T05:11:58;8.17;;;7.67;;
52023;SDS011;38038;45.922;13.604;2024-02-21T05:14:26;8.20;;;7.73;;
52023;SDS011;38038;45.922;13.604;2024-02-21T05:16:53;8.27;;;7.77;;
52023;SDS011;38038;45.922;13.604;2024-02-21T05:19:19;7.40;;;7.00;;
52023;SDS011;38038;45.922;13.604;2024-02-21T05:21:45;7.17;;;6.77;;
52023;SDS011;38038;45.922;13.604;2024-02-21T05:24:11;7.40;;;7.00;;
52023;SDS011;38038;45.922;13.604;2024-02-21T05:26:37;8.13;;;7.63;;
52023;SDS011;38038;45.922;13.604;2024-02-21T05:29:02;7.53;;;7.10;;
52023;SDS011;38038;45.922;13.604;2024-02-21T05:34:16;8.20;;;7.70;;
52023;SDS011;38038;45.922;13.604;2024-02-21T05:36:42;8.30;;;7.90;;
52023;SDS011;38038;45.922;13.604;2024-02-21T05:39:09;7.90;;;7.40;;
52023;SDS011;38038;45.922;13.604;2024-02-21T05:41:34;7.80;;;7.30;;
52023;SDS011;38038;45.922;13.604;2024-02-21T05:44:00;8.13;;;7.73;;
52023;SDS011;38038;45.922;13.604;2024-02-21T05:46:26;7.50;;;7.10;;
52023;SDS011;38038;45.922;13.604;2024-02-21T05:48:52;8.23;;;7.80;;
52023;SDS011;38038;45.922;13.604;2024-02-21T05:51:17;8.00;;;7.60;;
52023;SDS011;38038;45.922;13.604;2024-02-21T05:53:43;7.60;;;7.20;;
52023;SDS011;38038;45.922;13.604;2024-02-21T05:56:12;7.90;;;7.20;;
52023;SDS011;38038;45.922;13.604;2024-02-21T05:58:38;7.67;;;7.17;;
52023;SDS011;38038;45.922;13.604;2024-02-21T06:01:04;7.93;;;7.00;;
52023;SDS011;38038;45.922;13.604;2024-02-21T06:03:32;22.03;;;20.70;;
52023;SDS011;38038;45.922;13.604;2024-02-21T06:05:58;23.27;;;16.20;;
52023;SDS011;38038;45.922;13.604;2024-02-21T06:08:25;24.13;;;21.73;;
52023;SDS011;38038;45.922;13.604;2024-02-21T06:10:51;12.53;;;10.27;;
52023;SDS011;38038;45.922;13.604;2024-02-21T06:13:19;9.70;;;9.00;;
52023;SDS011;38038;45.922;13.604;2024-02-21T06:15:46;9.87;;;9.33;;
52023;SDS011;38038;45.922;13.604;2024-02-21T06:18:12;11.60;;;11.00;;
52023;SDS011;38038;45.922;13.604;2024-02-21T06:20:38;12.53;;;11.87;;
52023;SDS011;38038;45.922;13.604;2024-02-21T06:23:05;11.03;;;10.43;;
52023;SDS011;38038;45.922;13.604;2024-02-21T06:25:31;8.73;;;8.13;;
52023;SDS011;38038;45.922;13.604;2024-02-21T06:27:57;9.27;;;8.33;;
52023;SDS011;38038;45.922;13.604;2024-02-21T06:30:23;9.93;;;9.13;;
52023;SDS011;38038;45.922;13.604;2024-02-21T06:32:49;10.23;;;9.63;;
52023;SDS011;38038;45.922;13.604;2024-02-21T06:35:14;10.50;;;9.87;;
52023;SDS011;38038;45.922;13.604;2024-02-21T06:37:40;10.17;;;9.57;;
52023;SDS011;38038;45.922;13.604;2024-02-21T06:40:06;10.70;;;10.10;;
52023;SDS011;38038;45.922;13.604;2024-02-21T06:42:32;11.33;;;10.73;;
52023;SDS011;38038;45.922;13.604;2024-02-21T06:44:58;9.70;;;9.13;;
52023;SDS011;38038;45.922;13.604;2024-02-21T06:47:24;10.63;;;10.07;;
52023;SDS011;38038;45.922;13.604;2024-02-21T06:49:50;10.57;;;9.97;;
52023;SDS011;38038;45.922;13.604;2024-02-21T06:52:19;9.50;;;9.00;;
52023;SDS011;38038;45.922;13.604;2024-02-21T06:54:48;9.53;;;9.03;;
52023;SDS011;38038;45.922;13.604;2024-02-21T06:57:14;15.37;;;13.00;;
52023;SDS011;38038;45.922;13.604;2024-02-21T06:59:40;12.90;;;12.00;;
52023;SDS011;38038;45.922;13.604;2024-02-21T07:02:06;14.57;;;13.50;;
52023;SDS011;38038;45.922;13.604;2024-02-21T07:04:32;11.50;;;10.40;;
52023;SDS011;38038;45.922;13.604;2024-02-21T07:06:58;11.03;;;10.13;;
52023;SDS011;38038;45.922;13.604;2024-02-21T07:09:24;13.70;;;12.40;;
52023;SDS011;38038;45.922;13.604;2024-02-21T07:11:50;17.40;;;13.23;;
52023;SDS011;38038;45.922;13.604;2024-02-21T07:14:15;10.60;;;9.67;;
52023;SDS011;38038;45.922;13.604;2024-02-21T07:16:41;11.47;;;10.57;;
52023;SDS011;38038;45.922;13.604;2024-02-21T07:19:07;17.40;;;15.77;;
52023;SDS011;38038;45.922;13.604;2024-02-21T07:21:32;12.40;;;11.37;;
52023;SDS011;38038;45.922;13.604;2024-02-21T07:23:58;13.23;;;11.90;;
52023;SDS011;38038;45.922;13.604;2024-02-21T07:26:24;13.37;;;12.27;;
52023;SDS011;38038;45.922;13.604;2024-02-21T07:28:50;12.37;;;11.07;;
52023;SDS011;38038;45.922;13.604;2024-02-21T07:31:15;14.13;;;12.73;;
52023;SDS011;38038;45.922;13.604;2024-02-21T07:33:41;13.33;;;10.77;;
52023;SDS011;38038;45.922;13.604;2024-02-21T07:36:07;13.13;;;10.40;;
52023;SDS011;38038;45.922;13.604;2024-02-21T07:38:35;11.77;;;10.83;;
52023;SDS011;38038;45.922;13.604;2024-02-21T07:41:01;11.17;;;10.30;;
52023;SDS011;38038;45.922;13.604;2024-02-21T07:43:27;14.50;;;12.03;;
52023;SDS011;38038;45.922;13.604;2024-02-21T07:45:53;13.17;;;10.43;;
52023;SDS011;38038;45.922;13.604;2024-02-21T07:48:19;12.27;;;11.33;;
52023;SDS011;38038;45.922;13.604;2024-02-21T07:50:46;10.47;;;9.77;;
52023;SDS011;38038;45.922;13.604;2024-02-21T07:53:11;11.33;;;10.30;;
52023;SDS011;38038;45.922;13.604;2024-02-21T07:55:37;10.20;;;9.43;;
52023;SDS011;38038;45.922;13.604;2024-02-21T07:58:03;10.87;;;10.03;;
52023;SDS011;38038;45.922;13.604;2024-02-21T08:00:28;12.50;;;10.17;;
52023;SDS011;38038;45.922;13.604;2024-02-21T08:02:55;13.63;;;9.23;;
52023;SDS011;38038;45.922;13.604;2024-02-21T08:05:20;8.10;;;7.50;;
52023;SDS011;38038;45.922;13.604;2024-02-21T08:07:48;8.80;;;8.10;;
52023;SDS011;38038;45.922;13.604;2024-02-21T08:10:13;7.23;;;6.83;;
52023;SDS011;38038;45.922;13.604;2024-02-21T08:12:39;7.10;;;6.70;;
52023;SDS011;38038;45.922;13.604;2024-02-21T08:15:05;7.20;;;6.80;;
52023;SDS011;38038;45.922;13.604;2024-02-21T08:17:33;6.97;;;6.47;;
52023;SDS011;38038;45.922;13.604;2024-02-21T08:19:59;7.20;;;6.70;;
52023;SDS011;38038;45.922;13.604;2024-02-21T08:22:25;7.43;;;6.93;;
52023;SDS011;38038;45.922;13.604;2024-02-21T08:24:50;8.50;;;8.00;;
52023;SDS011;38038;45.922;13.604;2024-02-21T08:27:16;7.43;;;7.03;;
52023;SDS011;38038;45.922;13.604;2024-02-21T08:29:42;7.17;;;6.47;;
52023;SDS011;38038;45.922;13.604;2024-02-21T08:32:07;7.03;;;6.53;;
52023;SDS011;38038;45.922;13.604;2024-02-21T08:34:33;6.90;;;6.50;;
52023;SDS011;38038;45.922;13.604;2024-02-21T08:36:59;9.07;;;8.57;;
52023;SDS011;38038;45.922;13.604;2024-02-21T08:39:25;8.13;;;7.30;;
52023;SDS011;38038;45.922;13.604;2024-02-21T08:41:53;9.33;;;8.53;;
52023;SDS011;38038;45.922;13.604;2024-02-21T08:44:19;10.80;;;10.13;;
52023;SDS011;38038;45.922;13.604;2024-02-21T08:46:45;14.27;;;13.47;;
52023;SDS011;38038;45.922;13.604;2024-02-21T08:49:12;15.40;;;14.60;;
52023;SDS011;38038;45.922;13.604;2024-02-21T08:51:39;11.50;;;10.40;;
52023;SDS011;38038;45.922;13.604;2024-02-21T08:54:05;11.90;;;11.00;;
52023;SDS011;38038;45.922;13.604;2024-02-21T08:56:30;12.03;;;9.77;;
52023;SDS011;38038;45.922;13.604;2024-02-21T08:58:56;10.47;;;9.70;;
52023;SDS011;38038;45.922;13.604;2024-02-21T09:01:23;9.13;;;8.20;;
52023;SDS011;38038;45.922;13.604;2024-02-21T09:03:48;11.40;;;9.57;;
52023;SDS011;38038;45.922;13.604;2024-02-21T09:06:18;10.70;;;9.80;;
52023;SDS011;38038;45.922;13.604;2024-02-21T09:08:44;8.93;;;7.90;;
52023;SDS011;38038;45.922;13.604;2024-02-21T09:11:10;9.73;;;8.97;;
52023;SDS011;38038;45.922;13.604;2024-02-21T09:13:36;9.33;;;8.63;;
52023;SDS011;38038;45.922;13.604;2024-02-21T09:16:02;13.53;;;8.90;;
52023;SDS011;38038;45.922;13.604;2024-02-21T09:18:28;12.73;;;11.50;;
52023;SDS011;38038;45.922;13.604;2024-02-21T09:20:54;10.97;;;10.17;;
52023;SDS011;38038;45.922;13.604;2024-02-21T09:23:21;9.17;;;8.57;;
52023;SDS011;38038;45.922;13.604;2024-02-21T09:25:49;8.73;;;8.10;;
52023;SDS011;38038;45.922;13.604;2024-02-21T09:28:15;12.87;;;12.07;;
52023;SDS011;38038;45.922;13.604;2024-02-21T09:30:40;9.80;;;8.80;;
52023;SDS011;38038;45.922;13.604;2024-02-21T09:33:06;16.77;;;9.70;;
52023;SDS011;38038;45.922;13.604;2024-02-21T09:35:32;11.27;;;10.50;;
52023;SDS011;38038;45.922;13.604;2024-02-21T09:37:58;10.57;;;9.87;;
52023;SDS011;38038;45.922;13.604;2024-02-21T09:40:24;11.13;;;10.33;;
52023;SDS011;38038;45.922;13.604;2024-02-21T09:42:50;14.87;;;13.63;;
52023;SDS011;38038;45.922;13.604;2024-02-21T09:45:31;12.03;;;11.27;;
52023;SDS011;38038;45.922;13.604;2024-02-21T09:50:58;11.33;;;10.63;;
52023;SDS011;38038;45.922;13.604;2024-02-21T09:53:25;11.50;;;10.90;;
52023;SDS011;38038;45.922;13.604;2024-02-21T09:55:52;9.07;;;8.57;;
52023;SDS011;38038;45.922;13.604;2024-02-21T09:58:18;8.87;;;8.10;;
52023;SDS011;38038;45.922;13.604;2024-02-21T10:00:44;9.60;;;9.07;;
52023;SDS011;38038;45.922;13.604;2024-02-21T10:03:10;10.87;;;10.27;;
52023;SDS011;38038;45.922;13.604;2024-02-21T10:05:36;9.40;;;8.80;;
52023;SDS011;38038;45.922;13.604;2024-02-21T10:08:03;9.07;;;8.47;;
52023;SDS011;38038;45.922;13.604;2024-02-21T10:10:29;7.93;;;7.43;;
52023;SDS011;38038;45.922;13.604;2024-02-21T10:12:55;9.20;;;8.70;;
52023;SDS011;38038;45.922;13.604;2024-02-21T10:15:23;8.43;;;7.93;;
52023;SDS011;38038;45.922;13.604;2024-02-21T10:17:59;9.17;;;8.67;;
52023;SDS011;38038;45.922;13.604;2024-02-21T10:20:26;8.35;;;7.82;;
52023;SDS011;38038;45.922;13.604;2024-02-21T10:23:02;7.05;;;6.65;;
52023;SDS011;38038;45.922;13.604;2024-02-21T10:25:33;6.57;;;6.18;;
52023;SDS011;38038;45.922;13.604;2024-02-21T10:28:08;6.72;;;6.32;;
52023;SDS011;38038;45.922;13.604;2024-02-21T10:30:36;6.95;;;6.43;;
52023;SDS011;38038;45.922;13.604;2024-02-21T10:33:02;7.28;;;6.88;;
52023;SDS011;38038;45.922;13.604;2024-02-21T10:35:31;7.40;;;7.00;;
52023;SDS011;38038;45.922;13.604;2024-02-21T10:37:58;6.32;;;6.00;;
52023;SDS011;38038;45.922;13.604;2024-02-21T10:40:25;6.95;;;6.55;;
52023;SDS011;38038;45.922;13.604;2024-02-21T10:42:57;7.35;;;6.85;;
52023;SDS011;38038;45.922;13.604;2024-02-21T10:45:32;7.20;;;6.80;;
52023;SDS011;38038;45.922;13.604;2024-02-21T10:48:10;6.95;;;6.55;;
52023;SDS011;38038;45.922;13.604;2024-02-21T10:58:50;6.53;;;6.13;;
52023;SDS011;38038;45.922;13.604;2024-02-21T11:01:17;7.50;;;7.10;;
52023;SDS011;38038;45.922;13.604;2024-02-21T11:03:44;17.15;;;16.25;;
52023;SDS011;38038;45.922;13.604;2024-02-21T11:06:12;6.57;;;6.18;;
52023;SDS011;38038;45.922;13.604;2024-02-21T11:08:38;7.00;;;6.40;;
52023;SDS011;38038;45.922;13.604;2024-02-21T11:11:05;6.65;;;6.25;;
52023;SDS011;38038;45.922;13.604;2024-02-21T11:13:31;6.88;;;6.45;;
52023;SDS011;38038;45.922;13.604;2024-02-21T11:16:09;6.75;;;6.35;;
52023;SDS011;38038;45.922;13.604;2024-02-21T11:18:39;6.72;;;6.32;;
52023;SDS011;38038;45.922;13.604;2024-02-21T11:21:05;7.88;;;7.28;;
52023;SDS011;38038;45.922;13.604;2024-02-21T11:23:31;7.13;;;6.72;;
52023;SDS011;38038;45.922;13.604;2024-02-21T11:28:35;7.50;;;7.00;;
52023;SDS011;38038;45.922;13.604;2024-02-21T11:31:07;8.10;;;6.78;;
52023;SDS011;38038;45.922;13.604;2024-02-21T11:33:34;6.60;;;6.20;;
52023;SDS011;38038;45.922;13.604;2024-02-21T11:36:01;6.28;;;5.88;;
52023;SDS011;38038;45.922;13.604;2024-02-21T11:38:29;6.30;;;5.90;;
52023;SDS011;38038;45.922;13.604;2024-02-21T11:40:55;6.35;;;5.95;;
52023;SDS011;38038;45.922;13.604;2024-02-21T11:43:20;11.13;;;6.15;;
52023;SDS011;38038;45.922;13.604;2024-02-21T11:45:46;7.03;;;6.53;;
52023;SDS011;38038;45.922;13.604;2024-02-21T11:48:12;6.45;;;5.95;;
52023;SDS011;38038;45.922;13.604;2024-02-21T11:50:39;5.90;;;5.60;;
52023;SDS011;38038;45.922;13.604;2024-02-21T11:53:05;6.85;;;6.45;;
52023;SDS011;38038;45.922;13.604;2024-02-21T11:55:30;7.38;;;6.85;;
52023;SDS011;38038;45.922;13.604;2024-02-21T11:57:56;6.75;;;6.30;;
52023;SDS011;38038;45.922;13.604;2024-02-21T12:00:22;6.50;;;6.10;;
52023;SDS011;38038;45.922;13.604;2024-02-21T12:02:51;6.60;;;6.20;;
52023;SDS011;38038;45.922;13.604;2024-02-21T12:05:18;7.10;;;6.65;;
52023;SDS011;38038;45.922;13.604;2024-02-21T12:07:45;6.88;;;6.47;;
52023;SDS011;38038;45.922;13.604;2024-02-21T12:10:11;6.50;;;6.10;;
52023;SDS011;38038;45.922;13.604;2024-02-21T12:12:38;7.03;;;6.53;;
52023;SDS011;38038;45.922;13.604;2024-02-21T12:15:04;6.50;;;6.10;;
52023;SDS011;38038;45.922;13.604;2024-02-21T12:17:34;6.38;;;5.97;;
52023;SDS011;38038;45.922;13.604;2024-02-21T12:20:01;6.13;;;5.72;;
52023;SDS011;38038;45.922;13.604;2024-02-21T12:22:31;6.10;;;5.70;;
52023;SDS011;38038;45.922;13.604;2024-02-21T12:24:59;6.82;;;6.32;;
52023;SDS011;38038;45.922;13.604;2024-02-21T12:27:27;6.28;;;5.80;;
52023;SDS011;38038;45.922;13.604;2024-02-21T12:29:53;6.38;;;5.97;;
52023;SDS011;38038;45.922;13.604;2024-02-21T12:32:19;5.63;;;5.32;;
52023;SDS011;38038;45.922;13.604;2024-02-21T12:34:45;6.35;;;5.95;;
52023;SDS011;38038;45.922;13.604;2024-02-21T12:37:11;6.00;;;5.70;;
52023;SDS011;38038;45.922;13.604;2024-02-21T12:39:41;5.82;;;5.43;;
52023;SDS011;38038;45.922;13.604;2024-02-21T12:42:07;6.40;;;5.90;;
52023;SDS011;38038;45.922;13.604;2024-02-21T12:44:34;6.38;;;5.78;;
52023;SDS011;38038;45.922;13.604;2024-02-21T12:47:00;6.63;;;6.13;;
52023;SDS011;38038;45.922;13.604;2024-02-21T12:49:26;5.80;;;5.40;;
52023;SDS011;38038;45.922;13.604;2024-02-21T12:51:54;6.22;;;5.82;;
52023;SDS011;38038;45.922;13.604;2024-02-21T12:54:20;7.03;;;6.50;;
52023;SDS011;38038;45.922;13.604;2024-02-21T12:56:46;5.95;;;5.60;;
52023;SDS011;38038;45.922;13.604;2024-02-21T12:59:12;6.32;;;5.93;;
52023;SDS011;38038;45.922;13.604;2024-02-21T13:01:39;6.10;;;5.70;;
52023;SDS011;38038;45.922;13.604;2024-02-21T13:04:05;6.63;;;5.97;;
52023;SDS011;38038;45.922;13.604;2024-02-21T13:06:30;6.63;;;6.22;;
52023;SDS011;38038;45.922;13.604;2024-02-21T13:08:56;6.70;;;6.25;;
52023;SDS011;38038;45.922;13.604;2024-02-21T13:11:22;6.60;;;6.20;;
52023;SDS011;38038;45.922;13.604;2024-02-21T13:13:51;9.90;;;6.40;;
52023;SDS011;38038;45.922;13.604;2024-02-21T13:16:18;6.80;;;6.40;;
52023;SDS011;38038;45.922;13.604;2024-02-21T13:18:43;6.53;;;6.13;;
52023;SDS011;38038;45.922;13.604;2024-02-21T13:21:12;7.50;;;6.90;;
52023;SDS011;38038;45.922;13.604;2024-02-21T13:23:38;6.30;;;5.90;;
52023;SDS011;38038;45.922;13.604;2024-02-21T13:26:05;6.30;;;5.90;;
52023;SDS011;38038;45.922;13.604;2024-02-21T13:28:30;6.38;;;5.97;;
52023;SDS011;38038;45.922;13.604;2024-02-21T13:30:56;6.40;;;5.90;;
52023;SDS011;38038;45.922;13.604;2024-02-21T13:33:22;6.38;;;5.97;;
52023;SDS011;38038;45.922;13.604;2024-02-21T13:35:48;6.18;;;5.88;;
52023;SDS011;38038;45.922;13.604;2024-02-21T13:38:14;6.55;;;6.05;;
52023;SDS011;38038;45.922;13.604;2024-02-21T13:40:40;7.25;;;6.65;;
52023;SDS011;38038;45.922;13.604;2024-02-21T13:43:07;6.57;;;6.05;;
52023;SDS011;38038;45.922;13.604;2024-02-21T13:45:33;6.13;;;5.72;;
52023;SDS011;38038;45.922;13.604;2024-02-21T13:47:58;5.97;;;5.57;;
52023;SDS011;38038;45.922;13.604;2024-02-21T13:50:27;6.30;;;5.90;;
52023;SDS011;38038;45.922;13.604;2024-02-21T13:52:55;6.18;;;5.60;;
52023;SDS011;38038;45.922;13.604;2024-02-21T13:55:21;7.13;;;6.70;;
52023;SDS011;38038;45.922;13.604;2024-02-21T13:57:47;6.75;;;6.25;;
52023;SDS011;38038;45.922;13.604;2024-02-21T14:00:13;7.20;;;6.65;;
52023;SDS011;38038;45.922;13.604;2024-02-21T14:02:39;7.38;;;6.95;;
52023;SDS011;38038;45.922;13.604;2024-02-21T14:05:05;7.03;;;6.63;;
52023;SDS011;38038;45.922;13.604;2024-02-21T14:07:31;7.18;;;6.63;;
52023;SDS011;38038;45.922;13.604;2024-02-21T14:10:00;6.35;;;5.95;;
52023;SDS011;38038;45.922;13.604;2024-02-21T14:12:26;7.00;;;6.50;;
52023;SDS011;38038;45.922;13.604;2024-02-21T14:14:51;7.18;;;6.63;;
52023;SDS011;38038;45.922;13.604;2024-02-21T14:17:17;6.80;;;6.40;;
52023;SDS011;38038;45.922;13.604;2024-02-21T14:19:43;7.57;;;7.18;;
52023;SDS011;38038;45.922;13.604;2024-02-21T14:22:09;6.60;;;6.20;;
52023;SDS011;38038;45.922;13.604;2024-02-21T14:24:36;6.70;;;6.30;;
52023;SDS011;38038;45.922;13.604;2024-02-21T14:27:02;7.88;;;7.38;;
52023;SDS011;38038;45.922;13.604;2024-02-21T14:29:28;8.15;;;7.75;;
52023;SDS011;38038;45.922;13.604;2024-02-21T14:31:54;18.65;;;17.65;;
52023;SDS011;38038;45.922;13.604;2024-02-21T14:34:20;7.32;;;6.93;;
52023;SDS011;38038;45.922;13.604;2024-02-21T14:36:45;11.27;;;10.63;;